createdAt,value
2017-03-29T00:00:52.544Z,15.44
2017-03-29T00:01:52.222Z,15.44
2017-03-29T00:02:52.555Z,15.33
2017-03-29T00:03:52.581Z,15.36
2017-03-29T00:04:52.587Z,15.39
2017-03-29T00:05:52.611Z,15.33
2017-03-29T00:06:52.688Z,15.36
2017-03-29T00:07:52.653Z,15.33
2017-03-29T00:08:52.657Z,15.36
2017-03-29T00:09:52.680Z,15.37
2017-03-29T00:10:52.709Z,15.39
2017-03-29T00:11:52.754Z,15.29
2017-03-29T00:12:52.745Z,15.37
2017-03-29T00:13:52.479Z,15.27
2017-03-29T00:14:52.773Z,15.24
2017-03-29T00:15:52.825Z,15.28
2017-03-29T00:16:52.846Z,15.27
2017-03-29T00:17:52.837Z,15.25
2017-03-29T00:18:52.873Z,15.33
2017-03-29T00:19:52.915Z,15.31
2017-03-29T00:20:52.949Z,15.29
2017-03-29T00:21:52.921Z,15.31
2017-03-29T00:22:52.348Z,15.25
2017-03-29T00:23:52.966Z,15.27
2017-03-29T00:24:52.993Z,15.17
2017-03-29T00:25:53.032Z,15.17
2017-03-29T00:26:53.034Z,15.18
2017-03-29T00:27:53.041Z,15.24
2017-03-29T00:28:53.052Z,15.22
2017-03-29T00:29:53.087Z,15.25
2017-03-29T00:30:53.098Z,15.29
2017-03-29T00:31:52.832Z,15.22
2017-03-29T00:32:52.826Z,15.17
2017-03-29T00:33:53.150Z,15.19
2017-03-29T00:34:53.176Z,15.19
2017-03-29T00:35:52.884Z,15.19
2017-03-29T00:36:53.212Z,15.17
2017-03-29T00:37:53.225Z,15.19
2017-03-29T00:38:53.278Z,15.18
2017-03-29T00:39:53.263Z,15.14
2017-03-29T00:40:53.290Z,15.18
2017-03-29T00:41:53.334Z,15.11
2017-03-29T00:42:53.011Z,15.22
2017-03-29T00:43:53.036Z,15.18
2017-03-29T00:44:53.371Z,15.17
2017-03-29T00:45:53.420Z,15.1
2017-03-29T00:46:53.093Z,15.11
2017-03-29T00:47:53.438Z,15.18
2017-03-29T00:48:53.479Z,15.11
2017-03-29T00:49:53.467Z,15.07
2017-03-29T00:50:53.526Z,15.1
2017-03-29T00:51:53.517Z,15.18
2017-03-29T00:52:53.527Z,15.1
2017-03-29T00:53:53.549Z,15.11
2017-03-29T00:54:53.563Z,15.22
2017-03-29T00:55:53.588Z,15.22
2017-03-29T00:56:53.611Z,15.07
2017-03-29T00:57:53.338Z,15.07
2017-03-29T00:58:53.387Z,15.15
2017-03-29T00:59:53.689Z,15.1
2017-03-29T01:00:53.370Z,15.02
2017-03-29T01:01:53.728Z,15.02
2017-03-29T01:02:53.755Z,15.07
2017-03-29T01:03:53.751Z,15.04
2017-03-29T01:04:53.766Z,14.99
2017-03-29T01:05:53.788Z,15.03
2017-03-29T01:06:53.789Z,15.09
2017-03-29T01:07:53.852Z,15.06
2017-03-29T01:08:53.828Z,15.03
2017-03-29T01:09:53.843Z,14.89
2017-03-29T01:10:53.862Z,15
2017-03-29T01:11:53.921Z,15
2017-03-29T01:12:53.901Z,14.96
2017-03-29T01:13:53.921Z,14.99
2017-03-29T01:14:53.957Z,14.94
2017-03-29T01:15:53.670Z,15
2017-03-29T01:16:54.051Z,14.91
2017-03-29T01:17:54.000Z,14.94
2017-03-29T01:18:54.061Z,14.89
2017-03-29T01:19:54.045Z,14.86
2017-03-29T01:20:54.056Z,14.86
2017-03-29T01:21:54.106Z,14.84
2017-03-29T01:22:54.126Z,14.86
2017-03-29T01:23:54.110Z,14.78
2017-03-29T01:24:53.821Z,14.77
2017-03-29T01:25:54.180Z,14.88
2017-03-29T01:26:53.855Z,14.88
2017-03-29T01:27:53.882Z,14.86
2017-03-29T01:28:54.260Z,14.84
2017-03-29T01:29:54.246Z,14.78
2017-03-29T01:30:54.254Z,14.72
2017-03-29T01:31:54.313Z,14.79
2017-03-29T01:32:54.009Z,14.78
2017-03-29T01:33:54.314Z,14.69
2017-03-29T01:34:54.365Z,14.78
2017-03-29T01:35:54.383Z,14.77
2017-03-29T01:36:54.415Z,14.7
2017-03-29T01:37:54.389Z,14.7
2017-03-29T01:38:54.409Z,14.6
2017-03-29T01:39:54.434Z,14.68
2017-03-29T01:40:54.448Z,14.65
2017-03-29T01:41:54.482Z,14.62
2017-03-29T01:42:54.207Z,14.68
2017-03-29T01:43:54.515Z,14.66
2017-03-29T01:44:54.527Z,14.51
2017-03-29T01:45:54.239Z,14.5
2017-03-29T01:46:54.251Z,14.63
2017-03-29T01:47:54.655Z,14.62
2017-03-29T01:48:54.669Z,14.53
2017-03-29T01:49:54.645Z,14.51
2017-03-29T01:50:54.651Z,14.51
2017-03-29T01:51:54.759Z,14.51
2017-03-29T01:52:54.727Z,14.48
2017-03-29T01:53:54.383Z,14.53
2017-03-29T01:54:54.736Z,14.51
2017-03-29T01:55:54.731Z,14.53
2017-03-29T01:56:54.793Z,14.5
2017-03-29T01:57:54.795Z,14.51
2017-03-29T01:58:54.811Z,14.53
2017-03-29T01:59:54.513Z,14.53
2017-03-29T02:00:54.843Z,14.43
2017-03-29T02:01:54.888Z,14.43
2017-03-29T02:02:54.911Z,14.43
2017-03-29T02:03:54.887Z,14.44
2017-03-29T02:04:54.626Z,14.47
2017-03-29T02:05:54.932Z,14.47
2017-03-29T02:06:54.941Z,14.44
2017-03-29T02:07:54.978Z,14.43
2017-03-29T02:08:55.182Z,14.45
2017-03-29T02:09:55.017Z,14.43
2017-03-29T02:10:55.053Z,14.41
2017-03-29T02:11:54.749Z,14.43
2017-03-29T02:12:55.218Z,14.37
2017-03-29T02:13:55.192Z,14.3
2017-03-29T02:14:54.788Z,14.35
2017-03-29T02:15:55.233Z,14.36
2017-03-29T02:16:54.518Z,14.37
2017-03-29T02:17:55.251Z,14.36
2017-03-29T02:18:55.254Z,14.35
2017-03-29T02:19:55.295Z,14.36
2017-03-29T02:20:54.899Z,14.3
2017-03-29T02:21:55.338Z,14.33
2017-03-29T02:22:55.333Z,14.23
2017-03-29T02:23:54.952Z,14.26
2017-03-29T02:24:54.996Z,14.3
2017-03-29T02:25:55.367Z,14.28
2017-03-29T02:26:55.007Z,14.3
2017-03-29T02:27:55.378Z,14.22
2017-03-29T02:28:55.377Z,14.26
2017-03-29T02:29:55.385Z,14.28
2017-03-29T02:30:55.393Z,14.22
2017-03-29T02:31:55.443Z,14.25
2017-03-29T02:32:54.821Z,14.2
2017-03-29T02:33:55.459Z,14.22
2017-03-29T02:34:55.477Z,14.28
2017-03-29T02:35:55.182Z,14.18
2017-03-29T02:36:55.546Z,14.26
2017-03-29T02:37:55.668Z,14.22
2017-03-29T02:38:55.558Z,14.23
2017-03-29T02:39:55.346Z,14.17
2017-03-29T02:40:55.596Z,14.14
2017-03-29T02:41:55.384Z,14.2
2017-03-29T02:42:55.626Z,14.15
2017-03-29T02:43:55.418Z,14.12
2017-03-29T02:44:55.661Z,14.08
2017-03-29T02:45:55.685Z,14.2
2017-03-29T02:46:55.704Z,14.18
2017-03-29T02:47:55.725Z,14.14
2017-03-29T02:48:55.741Z,14.2
2017-03-29T02:49:55.451Z,14.11
2017-03-29T02:50:55.801Z,14.08
2017-03-29T02:51:56.016Z,14.07
2017-03-29T02:52:55.853Z,14.08
2017-03-29T02:53:55.529Z,14.05
2017-03-29T02:54:55.861Z,14.1
2017-03-29T02:55:55.889Z,14.07
2017-03-29T02:56:55.898Z,14.04
2017-03-29T02:57:56.152Z,14.03
2017-03-29T02:58:55.745Z,14.04
2017-03-29T02:59:55.847Z,13.99
2017-03-29T03:00:55.854Z,14
2017-03-29T03:01:56.178Z,13.96
2017-03-29T03:02:56.191Z,13.92
2017-03-29T03:03:56.187Z,14
2017-03-29T03:04:56.189Z,13.93
2017-03-29T03:05:55.880Z,13.95
2017-03-29T03:06:56.198Z,13.92
2017-03-29T03:07:55.902Z,13.96
2017-03-29T03:08:56.259Z,13.89
2017-03-29T03:09:56.255Z,13.85
2017-03-29T03:10:56.261Z,13.97
2017-03-29T03:11:56.266Z,13.89
2017-03-29T03:12:56.282Z,13.89
2017-03-29T03:13:55.975Z,13.83
2017-03-29T03:14:56.016Z,13.81
2017-03-29T03:15:56.394Z,13.9
2017-03-29T03:16:56.347Z,13.9
2017-03-29T03:17:55.727Z,13.83
2017-03-29T03:18:56.386Z,13.87
2017-03-29T03:19:56.581Z,13.79
2017-03-29T03:20:56.396Z,13.79
2017-03-29T03:21:55.736Z,13.77
2017-03-29T03:22:56.056Z,13.74
2017-03-29T03:23:56.393Z,13.81
2017-03-29T03:24:56.102Z,13.81
2017-03-29T03:25:56.138Z,13.72
2017-03-29T03:26:56.134Z,13.75
2017-03-29T03:27:56.153Z,13.77
2017-03-29T03:28:56.485Z,13.68
2017-03-29T03:29:56.503Z,13.68
2017-03-29T03:30:56.525Z,13.63
2017-03-29T03:31:56.269Z,13.72
2017-03-29T03:32:56.563Z,13.6
2017-03-29T03:33:56.262Z,13.68
2017-03-29T03:34:56.288Z,13.63
2017-03-29T03:35:56.618Z,13.7
2017-03-29T03:36:56.634Z,13.6
2017-03-29T03:37:56.653Z,13.6
2017-03-29T03:38:56.360Z,13.67
2017-03-29T03:39:56.695Z,13.56
2017-03-29T03:40:56.714Z,13.63
2017-03-29T03:41:56.421Z,13.6
2017-03-29T03:42:56.437Z,13.54
2017-03-29T03:43:56.773Z,13.53
2017-03-29T03:44:56.779Z,13.56
2017-03-29T03:45:56.492Z,13.56
2017-03-29T03:46:56.821Z,13.5
2017-03-29T03:47:56.521Z,13.49
2017-03-29T03:48:56.857Z,13.52
2017-03-29T03:49:56.915Z,13.5
2017-03-29T03:50:56.675Z,13.52
2017-03-29T03:51:57.151Z,13.41
2017-03-29T03:52:56.757Z,13.46
2017-03-29T03:53:56.747Z,13.33
2017-03-29T03:54:56.761Z,13.37
2017-03-29T03:55:57.135Z,13.46
2017-03-29T03:56:56.793Z,13.44
2017-03-29T03:57:57.114Z,13.47
2017-03-29T03:58:57.183Z,13.42
2017-03-29T03:59:56.608Z,13.41
2017-03-29T04:00:57.249Z,13.41
2017-03-29T04:01:57.243Z,13.41
2017-03-29T04:02:57.290Z,13.33
2017-03-29T04:03:57.145Z,13.35
2017-03-29T04:04:57.163Z,13.42
2017-03-29T04:05:56.873Z,13.28
2017-03-29T04:06:57.208Z,13.37
2017-03-29T04:07:57.204Z,13.33
2017-03-29T04:08:57.231Z,13.31
2017-03-29T04:09:57.241Z,13.37
2017-03-29T04:10:56.951Z,13.33
2017-03-29T04:11:57.279Z,13.31
2017-03-29T04:12:56.982Z,13.35
2017-03-29T04:13:57.313Z,13.31
2017-03-29T04:14:56.720Z,13.3
2017-03-29T04:15:57.045Z,13.3
2017-03-29T04:16:57.243Z,13.3
2017-03-29T04:17:57.504Z,13.35
2017-03-29T04:18:57.662Z,13.38
2017-03-29T04:19:57.656Z,13.28
2017-03-29T04:20:57.254Z,13.28
2017-03-29T04:21:57.465Z,13.25
2017-03-29T04:22:57.486Z,13.3
2017-03-29T04:23:57.187Z,13.27
2017-03-29T04:24:57.517Z,13.28
2017-03-29T04:25:57.537Z,13.27
2017-03-29T04:26:57.552Z,13.2
2017-03-29T04:27:56.954Z,13.22
2017-03-29T04:28:57.277Z,13.22
2017-03-29T04:29:57.623Z,13.18
2017-03-29T04:30:57.313Z,13.19
2017-03-29T04:31:57.669Z,13.2
2017-03-29T04:32:57.348Z,13.19
2017-03-29T04:33:57.712Z,13.19
2017-03-29T04:34:57.701Z,13.16
2017-03-29T04:35:57.717Z,13.19
2017-03-29T04:36:57.423Z,13.15
2017-03-29T04:37:57.754Z,13.13
2017-03-29T04:38:57.764Z,13.15
2017-03-29T04:39:57.784Z,13.22
2017-03-29T04:40:57.501Z,13.18
2017-03-29T04:41:57.833Z,13.16
2017-03-29T04:42:57.527Z,13.16
2017-03-29T04:43:57.856Z,13.08
2017-03-29T04:44:57.876Z,13.16
2017-03-29T04:45:57.586Z,13.18
2017-03-29T04:46:57.597Z,13.16
2017-03-29T04:47:57.619Z,13.04
2017-03-29T04:48:57.943Z,13.2
2017-03-29T04:49:57.655Z,13.13
2017-03-29T04:50:57.986Z,13.01
2017-03-29T04:51:58.004Z,13.13
2017-03-29T04:52:57.714Z,13
2017-03-29T04:53:57.721Z,13.08
2017-03-29T04:54:58.054Z,13.16
2017-03-29T04:55:58.080Z,13.05
2017-03-29T04:56:57.775Z,13.05
2017-03-29T04:57:57.793Z,13.05
2017-03-29T04:58:58.139Z,13.09
2017-03-29T04:59:57.831Z,13.05
2017-03-29T05:00:58.180Z,13.04
2017-03-29T05:01:58.187Z,13.04
2017-03-29T05:02:57.888Z,13.04
2017-03-29T05:03:57.909Z,13.08
2017-03-29T05:04:58.237Z,13.09
2017-03-29T05:05:58.442Z,13.11
2017-03-29T05:06:57.656Z,13.12
2017-03-29T05:07:58.295Z,13.05
2017-03-29T05:08:58.306Z,13.09
2017-03-29T05:09:58.013Z,13.15
2017-03-29T05:10:58.339Z,13.04
2017-03-29T05:11:58.362Z,13.11
2017-03-29T05:12:57.751Z,13.12
2017-03-29T05:13:58.095Z,13.09
2017-03-29T05:14:58.102Z,13.03
2017-03-29T05:15:58.119Z,13.12
2017-03-29T05:16:57.830Z,13.09
2017-03-29T05:17:58.466Z,13.05
2017-03-29T05:18:58.186Z,13.13
2017-03-29T05:19:58.499Z,13.04
2017-03-29T05:20:58.231Z,13.04
2017-03-29T05:21:58.229Z,13.05
2017-03-29T05:22:58.241Z,13.11
2017-03-29T05:23:58.255Z,13.05
2017-03-29T05:24:58.591Z,13.05
2017-03-29T05:25:58.309Z,13.08
2017-03-29T05:26:58.317Z,13.04
2017-03-29T05:27:58.645Z,13.11
2017-03-29T05:28:58.653Z,13.08
2017-03-29T05:29:58.675Z,13.15
2017-03-29T05:30:58.688Z,13.13
2017-03-29T05:31:58.710Z,13.08
2017-03-29T05:32:58.731Z,13.05
2017-03-29T05:33:58.745Z,13.05
2017-03-29T05:34:58.763Z,13.05
2017-03-29T05:35:58.781Z,13.15
2017-03-29T05:36:58.795Z,13.08
2017-03-29T05:37:58.816Z,13.16
2017-03-29T05:38:58.861Z,13.11
2017-03-29T05:39:58.856Z,13.13
2017-03-29T05:40:58.873Z,13.09
2017-03-29T05:41:58.607Z,13.04
2017-03-29T05:42:58.907Z,13.18
2017-03-29T05:43:58.927Z,13.04
2017-03-29T05:44:58.941Z,13.04
2017-03-29T05:45:58.966Z,13.13
2017-03-29T05:46:58.975Z,13.16
2017-03-29T05:47:59.001Z,13.03
2017-03-29T05:48:58.701Z,13.11
2017-03-29T05:49:59.030Z,13.05
2017-03-29T05:50:59.053Z,13.01
2017-03-29T05:51:59.062Z,13.19
2017-03-29T05:52:59.083Z,13.03
2017-03-29T05:53:59.098Z,13.22
2017-03-29T05:54:59.121Z,13.19
2017-03-29T05:55:59.138Z,13.15
2017-03-29T05:56:59.154Z,13.13
2017-03-29T05:57:59.174Z,13.15
2017-03-29T05:58:59.191Z,13.19
2017-03-29T05:59:59.209Z,13.13
2017-03-29T06:00:59.234Z,13.2
2017-03-29T06:01:59.390Z,13.18
2017-03-29T06:02:59.263Z,13.18
2017-03-29T06:03:58.966Z,13.23
2017-03-29T06:04:59.299Z,13.27
2017-03-29T06:05:59.314Z,13.33
2017-03-29T06:06:59.343Z,13.25
2017-03-29T06:07:59.357Z,13.28
2017-03-29T06:08:59.410Z,13.31
2017-03-29T06:09:59.391Z,13.35
2017-03-29T06:10:59.403Z,13.38
2017-03-29T06:11:59.427Z,13.35
2017-03-29T06:12:59.444Z,13.37
2017-03-29T06:13:59.458Z,13.35
2017-03-29T06:14:59.472Z,13.47
2017-03-29T06:15:59.499Z,13.41
2017-03-29T06:16:59.515Z,13.47
2017-03-29T06:17:59.529Z,13.5
2017-03-29T06:18:59.549Z,13.5
2017-03-29T06:19:59.250Z,13.56
2017-03-29T06:20:59.588Z,13.6
2017-03-29T06:21:59.603Z,13.57
2017-03-29T06:22:59.619Z,13.56
2017-03-29T06:23:59.639Z,13.59
2017-03-29T06:24:59.651Z,13.6
2017-03-29T06:25:59.674Z,13.65
2017-03-29T06:26:59.690Z,13.65
2017-03-29T06:27:59.773Z,13.63
2017-03-29T06:28:59.842Z,13.65
2017-03-29T06:29:59.742Z,13.63
2017-03-29T06:30:59.858Z,13.65
2017-03-29T06:31:59.468Z,13.71
2017-03-29T06:32:59.797Z,13.68
2017-03-29T06:33:59.812Z,13.7
2017-03-29T06:34:59.523Z,13.67
2017-03-29T06:35:59.854Z,13.67
2017-03-29T06:36:59.876Z,13.78
2017-03-29T06:37:59.895Z,13.75
2017-03-29T06:38:59.903Z,13.81
2017-03-29T06:39:59.925Z,13.78
2017-03-29T06:40:59.943Z,13.77
2017-03-29T06:41:59.961Z,13.79
2017-03-29T06:42:59.980Z,13.81
2017-03-29T06:44:00.002Z,13.81
2017-03-29T06:45:00.016Z,13.78
2017-03-29T06:46:00.032Z,13.79
2017-03-29T06:46:59.746Z,13.89
2017-03-29T06:48:00.075Z,13.87
2017-03-29T06:49:00.090Z,13.92
2017-03-29T06:50:00.116Z,13.9
2017-03-29T06:51:00.122Z,13.89
2017-03-29T06:52:00.140Z,13.96
2017-03-29T06:53:00.190Z,13.95
2017-03-29T06:54:00.191Z,13.95
2017-03-29T06:55:00.202Z,13.99
2017-03-29T06:55:59.904Z,14.04
2017-03-29T06:56:59.921Z,14.07
2017-03-29T06:58:00.252Z,14.07
2017-03-29T06:59:00.269Z,14.04
2017-03-29T07:00:00.294Z,14.15
2017-03-29T07:00:59.992Z,14.11
2017-03-29T07:02:00.018Z,14.14
2017-03-29T07:02:59.736Z,14.18
2017-03-29T07:04:00.291Z,14.2
2017-03-29T07:05:00.651Z,14.3
2017-03-29T07:06:00.404Z,14.26
2017-03-29T07:07:00.104Z,14.35
2017-03-29T07:08:00.433Z,14.36
2017-03-29T07:09:00.448Z,14.36
2017-03-29T07:10:00.472Z,14.47
2017-03-29T07:11:00.488Z,14.41
2017-03-29T07:12:00.511Z,14.55
2017-03-29T07:13:00.527Z,14.53
2017-03-29T07:14:00.548Z,14.54
2017-03-29T07:15:00.566Z,14.55
2017-03-29T07:16:00.586Z,14.66
2017-03-29T07:17:00.797Z,14.68
2017-03-29T07:18:00.624Z,14.68
2017-03-29T07:19:00.633Z,14.72
2017-03-29T07:20:00.658Z,14.78
2017-03-29T07:21:00.669Z,14.73
2017-03-29T07:22:00.694Z,14.77
2017-03-29T07:23:00.709Z,14.77
2017-03-29T07:24:00.726Z,14.79
2017-03-29T07:25:00.743Z,14.81
2017-03-29T07:26:00.764Z,14.73
2017-03-29T07:27:00.783Z,14.84
2017-03-29T07:28:00.491Z,14.97
2017-03-29T07:29:00.504Z,14.96
2017-03-29T07:30:00.839Z,14.99
2017-03-29T07:31:00.857Z,14.97
2017-03-29T07:32:00.976Z,14.99
2017-03-29T07:33:00.953Z,15.02
2017-03-29T07:34:00.912Z,15.06
2017-03-29T07:35:00.927Z,15.1
2017-03-29T07:36:00.944Z,15.09
2017-03-29T07:37:00.971Z,15.07
2017-03-29T07:38:01.037Z,15.18
2017-03-29T07:39:01.104Z,15.21
2017-03-29T07:40:01.047Z,15.1
2017-03-29T07:41:01.045Z,15.09
2017-03-29T07:42:01.067Z,15.24
2017-03-29T07:43:01.077Z,15.27
2017-03-29T07:44:01.095Z,15.11
2017-03-29T07:45:01.116Z,15.28
2017-03-29T07:46:01.130Z,15.29
2017-03-29T07:47:01.151Z,15.35
2017-03-29T07:48:01.177Z,15.22
2017-03-29T07:49:01.190Z,15.4
2017-03-29T07:50:01.208Z,15.37
2017-03-29T07:51:01.326Z,15.37
2017-03-29T07:52:01.337Z,15.44
2017-03-29T07:53:01.466Z,15.49
2017-03-29T07:54:01.746Z,15.52
2017-03-29T07:55:01.491Z,15.52
2017-03-29T07:56:01.500Z,15.54
2017-03-29T07:57:01.509Z,15.58
2017-03-29T07:58:01.507Z,15.51
2017-03-29T07:59:01.521Z,15.52
2017-03-29T08:00:01.524Z,15.57
2017-03-29T08:01:01.627Z,15.52
2017-03-29T08:02:01.543Z,15.64
2017-03-29T08:03:01.502Z,15.54
2017-03-29T08:04:01.518Z,15.64
2017-03-29T08:05:01.327Z,15.61
2017-03-29T08:06:01.531Z,15.65
2017-03-29T08:07:01.540Z,15.72
2017-03-29T08:08:01.345Z,15.73
2017-03-29T08:09:01.349Z,15.77
2017-03-29T08:10:01.586Z,15.8
2017-03-29T08:11:01.496Z,15.79
2017-03-29T08:12:01.509Z,15.86
2017-03-29T08:13:01.643Z,15.94
2017-03-29T08:14:01.714Z,15.92
2017-03-29T08:15:01.682Z,15.94
2017-03-29T08:16:01.714Z,15.95
2017-03-29T08:17:01.717Z,15.91
2017-03-29T08:18:01.739Z,16.05
2017-03-29T08:19:01.790Z,16.05
2017-03-29T08:20:01.771Z,16.13
2017-03-29T08:21:01.795Z,16.12
2017-03-29T08:22:01.500Z,16.17
2017-03-29T08:23:01.912Z,16.24
2017-03-29T08:24:01.914Z,16.26
2017-03-29T08:25:01.982Z,16.28
2017-03-29T08:26:01.988Z,16.33
2017-03-29T08:27:01.998Z,16.33
2017-03-29T08:28:01.996Z,16.41
2017-03-29T08:29:02.004Z,16.38
2017-03-29T08:30:02.014Z,16.51
2017-03-29T08:31:01.675Z,16.5
2017-03-29T08:32:02.130Z,16.6
2017-03-29T08:33:02.120Z,16.6
2017-03-29T08:34:02.168Z,16.66
2017-03-29T08:35:02.180Z,16.71
2017-03-29T08:36:02.098Z,16.78
2017-03-29T08:37:02.120Z,16.76
2017-03-29T08:38:02.338Z,16.76
2017-03-29T08:39:02.145Z,16.84
2017-03-29T08:40:01.854Z,16.81
2017-03-29T08:41:02.189Z,16.89
2017-03-29T08:42:02.204Z,16.96
2017-03-29T08:43:02.223Z,17.05
2017-03-29T08:44:02.238Z,17.02
2017-03-29T08:45:02.265Z,17.11
2017-03-29T08:46:02.285Z,16.97
2017-03-29T08:47:02.303Z,17.06
2017-03-29T08:48:02.323Z,17.14
2017-03-29T08:49:02.339Z,17.2
2017-03-29T08:50:02.359Z,17.12
2017-03-29T08:51:02.385Z,17.16
2017-03-29T08:52:02.402Z,17.19
2017-03-29T08:53:02.418Z,17.2
2017-03-29T08:54:02.451Z,17.23
2017-03-29T08:55:02.460Z,17.16
2017-03-29T08:56:02.487Z,17.2
2017-03-29T08:57:02.509Z,17.26
2017-03-29T08:58:02.520Z,17.16
2017-03-29T08:59:02.545Z,17.2
2017-03-29T09:00:02.562Z,17.23
2017-03-29T09:01:02.585Z,17.24
2017-03-29T09:02:02.602Z,17.26
2017-03-29T09:03:02.619Z,17.26
2017-03-29T09:04:02.643Z,17.23
2017-03-29T09:05:02.789Z,17.2
2017-03-29T09:06:02.797Z,17.2
2017-03-29T09:07:02.806Z,17.26
2017-03-29T09:08:02.829Z,17.29
2017-03-29T09:09:02.841Z,17.31
2017-03-29T09:10:02.846Z,17.31
2017-03-29T09:11:02.856Z,17.33
2017-03-29T09:12:02.863Z,17.38
2017-03-29T09:13:02.513Z,17.38
2017-03-29T09:14:02.932Z,17.34
2017-03-29T09:15:02.942Z,17.39
2017-03-29T09:16:02.951Z,17.36
2017-03-29T09:17:02.949Z,17.33
2017-03-29T09:18:02.946Z,17.34
2017-03-29T09:19:03.066Z,17.45
2017-03-29T09:20:02.798Z,17.44
2017-03-29T09:21:03.086Z,17.49
2017-03-29T09:22:03.103Z,17.52
2017-03-29T09:23:03.124Z,17.49
2017-03-29T09:24:03.015Z,17.49
2017-03-29T09:25:03.205Z,17.52
2017-03-29T09:26:02.933Z,17.6
2017-03-29T09:27:03.212Z,17.51
2017-03-29T09:28:03.081Z,17.6
2017-03-29T09:29:03.363Z,17.59
2017-03-29T09:30:03.372Z,17.59
2017-03-29T09:31:03.383Z,17.64
2017-03-29T09:32:03.148Z,17.76
2017-03-29T09:33:03.041Z,17.7
2017-03-29T09:34:03.143Z,17.7
2017-03-29T09:35:03.413Z,17.71
2017-03-29T09:36:03.125Z,17.7
2017-03-29T09:37:03.421Z,17.79
2017-03-29T09:38:03.394Z,17.78
2017-03-29T09:39:03.398Z,17.79
2017-03-29T09:40:03.395Z,17.95
2017-03-29T09:41:03.411Z,17.87
2017-03-29T09:42:03.420Z,17.87
2017-03-29T09:43:03.441Z,18
2017-03-29T09:44:03.484Z,18.03
2017-03-29T09:45:03.477Z,18.03
2017-03-29T09:46:03.515Z,18.07
2017-03-29T09:47:03.519Z,18.07
2017-03-29T09:48:03.546Z,18.19
2017-03-29T09:49:03.563Z,18.19
2017-03-29T09:50:03.158Z,18.23
2017-03-29T09:51:03.601Z,18.35
2017-03-29T09:52:03.644Z,18.38
2017-03-29T09:53:03.659Z,18.41
2017-03-29T09:54:03.669Z,18.52
2017-03-29T09:55:03.690Z,18.49
2017-03-29T09:56:03.709Z,18.6
2017-03-29T09:57:03.728Z,18.53
2017-03-29T09:58:03.767Z,18.66
2017-03-29T09:59:03.774Z,18.62
2017-03-29T10:00:03.853Z,18.66
2017-03-29T10:01:03.844Z,18.68
2017-03-29T10:02:03.534Z,18.83
2017-03-29T10:03:03.859Z,18.73
2017-03-29T10:04:03.878Z,18.77
2017-03-29T10:05:03.902Z,18.77
2017-03-29T10:06:03.953Z,18.77
2017-03-29T10:07:03.630Z,18.86
2017-03-29T10:08:03.965Z,18.83
2017-03-29T10:09:03.982Z,18.88
2017-03-29T10:10:04.226Z,18.83
2017-03-29T10:11:04.231Z,18.9
2017-03-29T10:12:04.240Z,18.89
2017-03-29T10:13:03.852Z,18.84
2017-03-29T10:14:04.284Z,18.84
2017-03-29T10:15:04.297Z,18.95
2017-03-29T10:16:04.305Z,18.96
2017-03-29T10:17:04.314Z,18.99
2017-03-29T10:18:04.322Z,19
2017-03-29T10:19:04.325Z,19.07
2017-03-29T10:20:04.224Z,19.07
2017-03-29T10:21:03.927Z,19.11
2017-03-29T10:22:04.261Z,19.14
2017-03-29T10:23:04.291Z,19.09
2017-03-29T10:24:04.307Z,19.11
2017-03-29T10:25:04.326Z,19.12
2017-03-29T10:26:04.360Z,19.12
2017-03-29T10:27:04.369Z,19.14
2017-03-29T10:28:04.392Z,19.12
2017-03-29T10:29:04.413Z,19.18
2017-03-29T10:30:04.130Z,19.14
2017-03-29T10:31:04.457Z,19.16
2017-03-29T10:32:04.479Z,19.16
2017-03-29T10:33:04.195Z,19.16
2017-03-29T10:34:04.525Z,19.22
2017-03-29T10:35:04.547Z,19.31
2017-03-29T10:36:04.666Z,19.21
2017-03-29T10:37:04.675Z,19.3
2017-03-29T10:38:04.303Z,19.34
2017-03-29T10:39:04.684Z,19.31
2017-03-29T10:40:04.693Z,19.34
2017-03-29T10:41:04.701Z,19.27
2017-03-29T10:42:04.711Z,19.45
2017-03-29T10:43:04.724Z,19.37
2017-03-29T10:44:04.944Z,19.39
2017-03-29T10:45:04.863Z,19.37
2017-03-29T10:46:04.471Z,19.45
2017-03-29T10:47:04.904Z,19.36
2017-03-29T10:48:04.953Z,19.37
2017-03-29T10:49:04.972Z,19.36
2017-03-29T10:50:05.109Z,19.29
2017-03-29T10:51:05.119Z,19.4
2017-03-29T10:52:04.816Z,19.45
2017-03-29T10:53:05.067Z,19.45
2017-03-29T10:54:05.142Z,19.37
2017-03-29T10:55:05.148Z,19.27
2017-03-29T10:56:05.159Z,19.34
2017-03-29T10:57:05.171Z,19.16
2017-03-29T10:58:05.178Z,19.29
2017-03-29T10:59:04.856Z,19.16
2017-03-29T11:00:05.183Z,19.14
2017-03-29T11:01:05.027Z,19.07
2017-03-29T11:02:05.236Z,19
2017-03-29T11:03:04.936Z,18.9
2017-03-29T11:04:05.278Z,18.93
2017-03-29T11:05:04.989Z,18.96
2017-03-29T11:06:05.316Z,18.89
2017-03-29T11:07:05.320Z,18.86
2017-03-29T11:08:05.125Z,18.9
2017-03-29T11:09:05.134Z,18.8
2017-03-29T11:10:05.273Z,18.95
2017-03-29T11:11:05.340Z,18.81
2017-03-29T11:12:05.040Z,18.75
2017-03-29T11:13:05.159Z,18.77
2017-03-29T11:14:05.302Z,18.74
2017-03-29T11:15:05.423Z,18.68
2017-03-29T11:16:05.444Z,18.75
2017-03-29T11:17:05.224Z,18.73
2017-03-29T11:18:05.486Z,18.66
2017-03-29T11:19:05.510Z,18.65
2017-03-29T11:20:05.234Z,18.7
2017-03-29T11:21:05.555Z,18.73
2017-03-29T11:22:05.586Z,18.62
2017-03-29T11:23:05.597Z,18.71
2017-03-29T11:24:05.619Z,18.62
2017-03-29T11:25:05.328Z,18.73
2017-03-29T11:26:05.658Z,18.7
2017-03-29T11:27:05.065Z,18.7
2017-03-29T11:28:05.736Z,18.78
2017-03-29T11:29:05.731Z,18.73
2017-03-29T11:30:05.140Z,18.77
2017-03-29T11:31:05.789Z,18.77
2017-03-29T11:32:05.795Z,18.78
2017-03-29T11:33:05.504Z,18.75
2017-03-29T11:34:05.863Z,18.74
2017-03-29T11:35:05.860Z,18.78
2017-03-29T11:36:05.891Z,18.83
2017-03-29T11:37:05.587Z,18.83
2017-03-29T11:38:05.927Z,18.8
2017-03-29T11:39:05.947Z,18.78
2017-03-29T11:40:05.672Z,18.75
2017-03-29T11:41:05.991Z,18.75
2017-03-29T11:42:06.033Z,18.81
2017-03-29T11:43:06.035Z,18.81
2017-03-29T11:44:05.751Z,18.75
2017-03-29T11:45:06.079Z,18.84
2017-03-29T11:46:05.996Z,18.9
2017-03-29T11:47:06.221Z,18.9
2017-03-29T11:48:06.393Z,18.83
2017-03-29T11:49:06.091Z,18.92
2017-03-29T11:50:06.296Z,18.9
2017-03-29T11:51:06.283Z,18.88
2017-03-29T11:52:06.314Z,18.98
2017-03-29T11:53:06.349Z,18.96
2017-03-29T11:54:06.332Z,18.92
2017-03-29T11:55:06.298Z,18.96
2017-03-29T11:56:06.180Z,18.93
2017-03-29T11:57:06.187Z,18.95
2017-03-29T11:58:06.196Z,18.96
2017-03-29T11:59:06.385Z,18.93
2017-03-29T12:00:06.600Z,18.98
2017-03-29T12:01:06.434Z,18.99
2017-03-29T12:02:06.454Z,18.96
2017-03-29T12:03:06.473Z,18.98
2017-03-29T12:04:06.504Z,18.92
2017-03-29T12:05:06.520Z,18.9
2017-03-29T12:06:06.535Z,18.96
2017-03-29T12:07:06.575Z,18.88
2017-03-29T12:08:06.813Z,18.92
2017-03-29T12:09:06.605Z,18.9
2017-03-29T12:10:06.642Z,18.95
2017-03-29T12:11:06.340Z,18.95
2017-03-29T12:12:06.361Z,18.86
2017-03-29T12:13:06.695Z,18.92
2017-03-29T12:14:06.719Z,18.86
2017-03-29T12:15:06.742Z,18.92
2017-03-29T12:16:06.763Z,18.92
2017-03-29T12:17:06.473Z,18.9
2017-03-29T12:18:06.806Z,18.88
2017-03-29T12:19:06.511Z,18.92
2017-03-29T12:20:06.848Z,18.93
2017-03-29T12:21:06.874Z,18.96
2017-03-29T12:22:06.591Z,18.92
2017-03-29T12:23:06.287Z,18.84
2017-03-29T12:24:06.942Z,18.9
2017-03-29T12:25:06.963Z,18.9
2017-03-29T12:26:06.665Z,18.89
2017-03-29T12:27:07.012Z,18.9
2017-03-29T12:28:07.025Z,18.9
2017-03-29T12:29:07.075Z,18.95
2017-03-29T12:30:07.079Z,18.86
2017-03-29T12:31:07.089Z,18.89
2017-03-29T12:32:07.142Z,18.86
2017-03-29T12:33:07.134Z,18.88
2017-03-29T12:34:07.154Z,18.86
2017-03-29T12:35:07.185Z,18.95
2017-03-29T12:36:06.889Z,18.84
2017-03-29T12:37:06.909Z,18.98
2017-03-29T12:38:07.242Z,18.9
2017-03-29T12:39:07.269Z,18.92
2017-03-29T12:40:07.292Z,18.99
2017-03-29T12:41:07.311Z,18.93
2017-03-29T12:42:07.016Z,18.95
2017-03-29T12:43:07.358Z,18.99
2017-03-29T12:44:07.377Z,18.99
2017-03-29T12:45:07.473Z,18.9
2017-03-29T12:46:07.419Z,18.95
2017-03-29T12:47:07.445Z,19.04
2017-03-29T12:48:07.462Z,18.99
2017-03-29T12:49:07.173Z,18.99
2017-03-29T12:50:07.243Z,19.04
2017-03-29T12:51:07.535Z,19.08
2017-03-29T12:52:07.239Z,18.99
2017-03-29T12:53:07.571Z,19.02
2017-03-29T12:54:07.600Z,19.04
2017-03-29T12:55:07.312Z,19.08
2017-03-29T12:56:07.699Z,19.07
2017-03-29T12:57:07.663Z,19.04